createdAt,value
2023-03-06T00:01:26.916Z,5.33
2023-03-06T00:04:00.754Z,5.63
2023-03-06T00:06:34.119Z,5.73
2023-03-06T00:09:07.892Z,5.93
2023-03-06T00:11:41.941Z,6.03
2023-03-06T00:14:16.348Z,6.53
2023-03-06T00:16:55.691Z,6.20
2023-03-06T00:19:29.816Z,6.57
2023-03-06T00:22:04.436Z,7.13
2023-03-06T00:24:38.529Z,7.00
2023-03-06T00:27:12.564Z,6.63
2023-03-06T00:29:49.136Z,7.57
2023-03-06T00:32:25.136Z,7.67
2023-03-06T00:34:59.181Z,6.63
2023-03-06T00:37:35.054Z,7.10
2023-03-06T00:40:12.768Z,6.63
2023-03-06T00:42:47.572Z,6.70
2023-03-06T00:45:21.656Z,6.47
2023-03-06T00:47:57.025Z,6.73
2023-03-06T00:50:30.476Z,6.50
2023-03-06T00:53:04.418Z,7.57
2023-03-06T00:55:38.041Z,6.17
2023-03-06T00:58:12.277Z,6.47
2023-03-06T01:00:46.728Z,6.57
2023-03-06T01:03:22.751Z,6.23
2023-03-06T01:05:58.050Z,6.53
2023-03-06T01:08:31.936Z,6.07
2023-03-06T01:11:06.722Z,6.27
2023-03-06T01:13:40.398Z,6.27
2023-03-06T01:16:16.874Z,5.93
2023-03-06T01:18:52.509Z,6.63
2023-03-06T01:21:27.310Z,6.57
2023-03-06T01:24:00.729Z,7.23
2023-03-06T01:26:34.774Z,7.13
2023-03-06T01:29:08.450Z,7.97
2023-03-06T01:31:42.733Z,8.00
2023-03-06T01:34:18.105Z,7.97
2023-03-06T01:36:52.141Z,7.77
2023-03-06T01:39:25.952Z,8.53
2023-03-06T01:42:00.032Z,7.77
2023-03-06T01:44:34.043Z,7.37
2023-03-06T01:47:07.888Z,7.67
2023-03-06T01:49:43.735Z,7.90
2023-03-06T01:52:23.254Z,7.87
2023-03-06T01:55:03.114Z,7.67
2023-03-06T01:57:42.648Z,7.90
2023-03-06T02:00:20.345Z,8.10
2023-03-06T02:02:59.726Z,8.53
2023-03-06T02:05:35.866Z,9.17
2023-03-06T02:08:11.125Z,8.27
2023-03-06T02:10:58.341Z,8.83
2023-03-06T02:13:32.623Z,9.70
2023-03-06T02:16:08.881Z,9.43
2023-03-06T02:18:45.342Z,9.50
2023-03-06T02:21:27.124Z,9.27
2023-03-06T02:24:29.461Z,9.10
2023-03-06T02:27:08.039Z,9.37
2023-03-06T02:29:41.858Z,8.53
2023-03-06T02:32:15.507Z,8.67
2023-03-06T02:34:55.164Z,8.43
2023-03-06T02:37:30.852Z,8.80
2023-03-06T02:40:13.946Z,8.07
2023-03-06T02:42:52.052Z,10.03
2023-03-06T02:45:35.211Z,9.77
2023-03-06T02:48:10.136Z,9.53
2023-03-06T02:50:47.049Z,10.07
2023-03-06T02:53:23.004Z,10.60
2023-03-06T02:55:57.528Z,11.30
2023-03-06T02:58:32.672Z,11.80
2023-03-06T03:01:06.912Z,12.03
2023-03-06T03:03:41.074Z,13.07
2023-03-06T03:06:14.617Z,14.03
2023-03-06T03:08:48.217Z,13.97
2023-03-06T03:11:22.051Z,13.30
2023-03-06T03:13:57.589Z,14.00
2023-03-06T03:16:31.543Z,14.03
2023-03-06T03:19:05.732Z,13.90
2023-03-06T03:21:39.756Z,14.13
2023-03-06T03:24:13.518Z,12.77
2023-03-06T03:26:47.772Z,13.73
2023-03-06T03:29:25.626Z,12.90
2023-03-06T03:31:59.937Z,14.67
2023-03-06T03:34:33.496Z,13.93
2023-03-06T03:37:07.593Z,13.73
2023-03-06T03:39:41.713Z,14.70
2023-03-06T03:42:15.491Z,13.97
2023-03-06T03:44:50.704Z,14.80
2023-03-06T03:47:24.143Z,13.83
2023-03-06T03:49:57.831Z,14.77
2023-03-06T03:52:31.477Z,13.87
2023-03-06T03:55:08.538Z,13.67
2023-03-06T03:57:43.275Z,13.13
2023-03-06T04:00:20.036Z,12.53
2023-03-06T04:02:53.916Z,11.73
2023-03-06T04:05:27.910Z,11.63
2023-03-06T04:08:03.135Z,11.47
2023-03-06T04:10:38.804Z,10.20
2023-03-06T04:13:12.346Z,9.67
2023-03-06T04:15:47.323Z,9.27
2023-03-06T04:18:21.984Z,8.77
2023-03-06T04:20:55.776Z,8.23
2023-03-06T04:23:29.948Z,7.90
2023-03-06T04:26:03.756Z,8.23
2023-03-06T04:28:39.735Z,7.87
2023-03-06T04:31:15.194Z,7.57
2023-03-06T04:33:48.734Z,8.00
2023-03-06T04:36:29.681Z,8.03
2023-03-06T04:39:03.994Z,8.33
2023-03-06T04:41:40.065Z,8.83
2023-03-06T04:44:14.275Z,9.80
2023-03-06T04:46:49.787Z,10.53
2023-03-06T04:49:23.918Z,10.47
2023-03-06T04:51:57.627Z,11.10
2023-03-06T04:54:31.314Z,11.57
2023-03-06T04:57:05.362Z,11.50
2023-03-06T04:59:39.294Z,12.27
2023-03-06T05:02:14.836Z,11.53
2023-03-06T05:04:49.345Z,13.27
2023-03-06T05:07:23.231Z,11.77
2023-03-06T05:09:57.218Z,12.03
2023-03-06T05:12:33.625Z,12.13
2023-03-06T05:15:10.028Z,12.83
2023-03-06T05:17:46.294Z,12.97
2023-03-06T05:20:20.298Z,13.20
2023-03-06T05:22:54.357Z,13.93
2023-03-06T05:25:28.045Z,12.50
2023-03-06T05:28:03.297Z,13.50
2023-03-06T05:30:37.642Z,12.93
2023-03-06T05:33:12.603Z,12.80
2023-03-06T05:35:48.721Z,12.27
2023-03-06T05:38:23.507Z,11.43
2023-03-06T05:40:57.505Z,12.20
2023-03-06T05:43:31.169Z,11.97
2023-03-06T05:46:06.682Z,12.17
2023-03-06T05:48:42.014Z,11.33
2023-03-06T05:51:16.201Z,10.80
2023-03-06T05:53:49.838Z,10.43
2023-03-06T05:56:26.318Z,9.43
2023-03-06T05:59:00.233Z,10.23
2023-03-06T06:01:33.758Z,10.33
2023-03-06T06:04:08.739Z,10.37
2023-03-06T06:06:42.324Z,9.37
2023-03-06T06:09:16.246Z,10.23
2023-03-06T06:11:53.904Z,9.93
2023-03-06T06:14:28.159Z,10.63
2023-03-06T06:17:01.870Z,11.67
2023-03-06T06:19:37.108Z,11.97
2023-03-06T06:22:10.923Z,12.70
2023-03-06T06:24:44.692Z,12.83
2023-03-06T06:27:20.938Z,12.33
2023-03-06T06:29:54.449Z,12.23
2023-03-06T06:32:28.503Z,13.30
2023-03-06T06:35:04.808Z,12.17
2023-03-06T06:37:38.558Z,12.80
2023-03-06T06:40:13.507Z,12.40
2023-03-06T06:42:48.007Z,11.60
2023-03-06T06:45:22.992Z,11.57
2023-03-06T06:47:57.428Z,10.20
2023-03-06T06:50:33.219Z,11.13
2023-03-06T06:53:07.366Z,11.63
2023-03-06T06:55:41.459Z,12.10
2023-03-06T06:58:16.136Z,12.13
2023-03-06T07:00:50.083Z,11.27
2023-03-06T07:03:24.124Z,11.40
2023-03-06T07:05:59.237Z,11.40
2023-03-06T07:08:33.175Z,12.27
2023-03-06T07:11:11.573Z,12.00
2023-03-06T07:13:45.635Z,12.23
2023-03-06T07:16:19.812Z,13.27
2023-03-06T07:18:53.370Z,14.33
2023-03-06T07:21:28.850Z,13.07
2023-03-06T07:24:02.349Z,15.77
2023-03-06T07:26:36.154Z,15.87
2023-03-06T07:29:09.764Z,16.10
2023-03-06T07:31:43.825Z,15.13
2023-03-06T07:34:17.452Z,15.73
2023-03-06T07:36:52.725Z,14.93
2023-03-06T07:39:28.183Z,14.70
2023-03-06T07:42:02.191Z,14.33
2023-03-06T07:44:38.603Z,15.07
2023-03-06T07:47:14.366Z,14.17
2023-03-06T07:49:48.060Z,14.93
2023-03-06T07:52:23.223Z,14.17
2023-03-06T07:54:57.149Z,14.10
2023-03-06T07:57:30.637Z,14.40
2023-03-06T08:00:06.430Z,14.40
2023-03-06T08:02:42.432Z,14.00
2023-03-06T08:05:18.580Z,14.07
2023-03-06T08:07:53.705Z,14.70
2023-03-06T08:10:27.615Z,15.77
2023-03-06T08:13:01.104Z,15.03
2023-03-06T08:15:35.198Z,14.97
2023-03-06T08:18:09.041Z,15.43
2023-03-06T08:20:42.698Z,15.53
2023-03-06T08:23:17.730Z,15.30
2023-03-06T08:25:59.099Z,13.63
2023-03-06T08:28:32.793Z,14.13
2023-03-06T08:31:12.077Z,12.73
2023-03-06T08:33:45.873Z,12.60
2023-03-06T08:36:19.637Z,12.20
2023-03-06T08:38:56.317Z,12.40
2023-03-06T08:41:30.901Z,12.63
2023-03-06T08:44:05.838Z,11.43
2023-03-06T08:46:39.919Z,12.20
2023-03-06T08:49:14.857Z,12.60
2023-03-06T08:51:48.567Z,11.60
2023-03-06T08:54:23.817Z,11.70
2023-03-06T08:56:57.433Z,10.53
2023-03-06T08:59:31.522Z,11.90
2023-03-06T09:02:07.018Z,10.43
2023-03-06T09:04:40.556Z,11.33
2023-03-06T09:07:13.892Z,11.07
2023-03-06T09:09:48.852Z,11.40
2023-03-06T09:12:22.405Z,10.87
2023-03-06T09:14:55.965Z,11.80
2023-03-06T09:17:29.980Z,11.47
2023-03-06T09:20:04.887Z,12.27
2023-03-06T09:22:42.515Z,12.03
2023-03-06T09:25:21.941Z,12.20
2023-03-06T09:28:10.158Z,11.37
2023-03-06T09:30:45.164Z,12.07
2023-03-06T09:33:19.451Z,11.27
2023-03-06T09:35:56.478Z,11.27
2023-03-06T09:38:30.241Z,12.17
2023-03-06T09:41:16.789Z,13.70
2023-03-06T09:43:55.038Z,12.93
2023-03-06T09:46:44.081Z,12.70
2023-03-06T09:49:54.142Z,13.57
2023-03-06T09:52:43.494Z,14.37
2023-03-06T09:55:21.942Z,13.83
2023-03-06T09:58:07.557Z,13.37
2023-03-06T10:00:46.124Z,14.27
2023-03-06T10:03:26.307Z,13.60
2023-03-06T10:06:06.302Z,13.20
2023-03-06T10:08:53.051Z,13.63
2023-03-06T10:11:34.117Z,13.50
2023-03-06T10:14:27.981Z,13.50
2023-03-06T10:17:03.505Z,13.47
2023-03-06T10:19:40.470Z,14.53
2023-03-06T10:22:27.878Z,15.03
2023-03-06T10:25:18.058Z,14.80
2023-03-06T10:28:00.982Z,15.97
2023-03-06T10:30:49.102Z,16.63
2023-03-06T10:33:48.265Z,17.57
2023-03-06T10:36:25.655Z,17.37
2023-03-06T10:39:00.534Z,15.87
2023-03-06T10:41:36.640Z,15.90
2023-03-06T10:44:25.852Z,15.67
2023-03-06T10:47:12.230Z,15.53
2023-03-06T10:50:01.270Z,16.60
2023-03-06T10:52:37.500Z,16.63
2023-03-06T10:55:37.931Z,16.33
2023-03-06T10:58:26.269Z,16.03
2023-03-06T11:01:19.893Z,15.80
2023-03-06T11:03:54.785Z,14.97
2023-03-06T11:06:36.095Z,14.73
2023-03-06T11:09:23.374Z,14.30
2023-03-06T11:12:29.747Z,12.10
2023-03-06T11:15:22.473Z,9.77
2023-03-06T11:18:01.112Z,9.53
2023-03-06T11:20:51.853Z,9.10
2023-03-06T11:23:38.891Z,8.13
2023-03-06T11:26:40.008Z,7.50
2023-03-06T11:29:40.978Z,6.47
2023-03-06T11:32:24.001Z,7.70
2023-03-06T11:35:04.097Z,9.13
2023-03-06T11:37:51.627Z,11.47
2023-03-06T11:40:34.265Z,11.13
2023-03-06T11:43:23.482Z,11.33
2023-03-06T11:46:05.494Z,12.03
2023-03-06T11:48:49.226Z,10.77
2023-03-06T11:51:33.936Z,10.60
2023-03-06T11:54:14.233Z,10.13
2023-03-06T11:56:57.078Z,10.03
2023-03-06T12:00:18.446Z,10.40
2023-03-06T12:03:27.415Z,9.30
2023-03-06T12:06:12.038Z,9.57
2023-03-06T12:09:12.672Z,9.50
2023-03-06T12:11:56.447Z,8.43
2023-03-06T12:14:53.980Z,10.00
2023-03-06T12:17:50.214Z,9.47
2023-03-06T12:20:54.387Z,9.03
2023-03-06T12:23:56.802Z,7.80
2023-03-06T12:26:59.069Z,7.53
2023-03-06T12:29:59.040Z,7.00
2023-03-06T12:32:50.906Z,5.83
2023-03-06T12:35:53.871Z,6.37
2023-03-06T12:39:02.464Z,6.87
2023-03-06T12:41:53.064Z,6.67
2023-03-06T12:45:03.940Z,6.87
2023-03-06T12:47:45.815Z,6.73
2023-03-06T12:50:25.733Z,7.10
2023-03-06T12:53:06.152Z,6.33
2023-03-06T12:55:44.164Z,6.23
2023-03-06T12:58:52.087Z,6.80
2023-03-06T13:02:12.615Z,6.83
2023-03-06T13:05:25.333Z,7.20
2023-03-06T13:08:32.964Z,6.53
2023-03-06T13:11:59.243Z,6.00
2023-03-06T13:14:54.876Z,4.90
2023-03-06T13:17:39.723Z,4.47
2023-03-06T13:20:43.634Z,4.63
2023-03-06T13:23:54.030Z,4.17
2023-03-06T13:27:03.607Z,4.63
2023-03-06T13:30:21.716Z,4.60
2023-03-06T13:32:57.934Z,4.43
2023-03-06T13:35:54.481Z,4.53
2023-03-06T13:38:35.286Z,4.20
2023-03-06T13:41:54.974Z,4.60
2023-03-06T13:44:53.410Z,3.43
2023-03-06T13:48:19.462Z,4.60
2023-03-06T13:50:51.041Z,4.53
2023-03-06T13:54:13.475Z,4.50
2023-03-06T13:57:21.058Z,3.87
2023-03-06T14:00:33.944Z,3.93
2023-03-06T14:03:52.024Z,4.57
2023-03-06T14:07:05.645Z,3.93
2023-03-06T14:09:45.913Z,3.50
2023-03-06T14:12:26.504Z,3.07
2023-03-06T14:15:05.270Z,3.00
2023-03-06T14:17:40.385Z,3.30
2023-03-06T14:20:17.345Z,3.07
2023-03-06T14:22:54.579Z,2.57
2023-03-06T14:25:32.799Z,2.90
2023-03-06T14:28:14.112Z,2.00
2023-03-06T14:30:53.034Z,2.67
2023-03-06T14:33:33.695Z,2.40
2023-03-06T14:36:09.416Z,2.60
2023-03-06T14:38:50.316Z,2.60
2023-03-06T14:41:28.119Z,2.33
2023-03-06T14:44:19.600Z,2.87
2023-03-06T14:46:56.491Z,2.77
2023-03-06T14:49:30.402Z,2.50
2023-03-06T14:52:04.924Z,2.60
2023-03-06T14:54:45.148Z,2.57
2023-03-06T14:57:22.690Z,2.47
2023-03-06T15:00:00.468Z,2.40
2023-03-06T15:02:34.631Z,2.30
2023-03-06T15:05:22.895Z,2.90
2023-03-06T15:08:03.111Z,2.70
2023-03-06T15:10:39.835Z,3.60
2023-03-06T15:13:23.626Z,5.67
2023-03-06T15:16:00.398Z,5.60
2023-03-06T15:18:39.013Z,6.53
2023-03-06T15:21:19.988Z,6.17
2023-03-06T15:23:55.824Z,6.27
2023-03-06T15:26:35.101Z,6.13
2023-03-06T15:29:24.124Z,5.90
2023-03-06T15:32:28.815Z,6.70
2023-03-06T15:35:28.298Z,7.70
2023-03-06T15:38:02.562Z,7.30
2023-03-06T15:40:36.531Z,7.13
2023-03-06T15:43:12.449Z,7.90
2023-03-06T15:45:45.837Z,7.97
2023-03-06T15:48:20.652Z,8.60
2023-03-06T15:50:54.286Z,8.60
2023-03-06T15:53:28.554Z,8.90
2023-03-06T15:56:03.317Z,7.30
2023-03-06T15:58:42.664Z,8.67
2023-03-06T16:01:19.824Z,8.70
2023-03-06T16:03:54.496Z,8.37
2023-03-06T16:06:29.941Z,9.23
2023-03-06T16:09:03.415Z,8.20
2023-03-06T16:11:43.831Z,7.97
2023-03-06T16:14:24.268Z,8.23
2023-03-06T16:16:59.961Z,7.57
2023-03-06T16:19:33.787Z,8.00
2023-03-06T16:22:07.934Z,8.00
2023-03-06T16:24:41.881Z,8.80
2023-03-06T16:27:20.224Z,7.80
2023-03-06T16:29:55.460Z,8.43
2023-03-06T16:32:29.331Z,8.53
2023-03-06T16:35:03.134Z,8.80
2023-03-06T16:37:36.858Z,10.00
2023-03-06T16:40:22.214Z,9.43
2023-03-06T16:42:56.265Z,10.13
2023-03-06T16:45:36.004Z,9.70
2023-03-06T16:48:15.436Z,11.23
2023-03-06T16:50:48.932Z,10.17
2023-03-06T16:53:24.821Z,10.97
2023-03-06T16:55:58.470Z,10.50
2023-03-06T16:58:31.910Z,11.00
2023-03-06T17:01:08.417Z,11.57
2023-03-06T17:03:42.474Z,11.47
2023-03-06T17:06:19.345Z,11.20
2023-03-06T17:08:53.314Z,11.37
2023-03-06T17:11:29.452Z,10.87
2023-03-06T17:14:03.734Z,11.43
2023-03-06T17:16:40.510Z,11.17
2023-03-06T17:19:16.678Z,10.83
2023-03-06T17:21:50.433Z,10.87
2023-03-06T17:24:24.107Z,10.70
2023-03-06T17:26:57.992Z,11.13
2023-03-06T17:29:31.721Z,11.43
2023-03-06T17:32:08.045Z,11.50
2023-03-06T17:34:42.674Z,11.33
2023-03-06T17:37:16.411Z,11.57
2023-03-06T17:39:51.742Z,11.37
2023-03-06T17:42:25.112Z,11.57
2023-03-06T17:44:58.954Z,11.77
2023-03-06T17:47:34.064Z,11.60
2023-03-06T17:50:09.067Z,11.43
2023-03-06T17:52:43.064Z,11.77
2023-03-06T17:55:17.006Z,10.53
2023-03-06T17:57:53.286Z,10.67
2023-03-06T18:00:27.191Z,10.90
2023-03-06T18:03:02.326Z,11.07
2023-03-06T18:05:36.088Z,11.43
2023-03-06T18:08:10.332Z,12.13
2023-03-06T18:10:44.624Z,11.33
2023-03-06T18:13:18.310Z,11.57
2023-03-06T18:15:52.104Z,11.50
2023-03-06T18:18:28.529Z,10.97
2023-03-06T18:21:07.448Z,10.10
2023-03-06T18:23:44.102Z,11.53
2023-03-06T18:26:20.458Z,10.63
2023-03-06T18:28:57.843Z,11.27
2023-03-06T18:31:35.409Z,11.17
2023-03-06T18:34:14.862Z,10.63
2023-03-06T18:36:51.678Z,10.73
2023-03-06T18:39:25.301Z,10.40
2023-03-06T18:41:59.034Z,11.30
2023-03-06T18:44:32.686Z,11.00
2023-03-06T18:47:07.308Z,10.90
2023-03-06T18:49:44.180Z,10.63
2023-03-06T18:52:18.785Z,10.93
2023-03-06T18:54:53.926Z,9.93
2023-03-06T18:57:29.273Z,11.17
2023-03-06T19:00:04.356Z,10.50
2023-03-06T19:02:38.310Z,11.53
2023-03-06T19:05:14.147Z,11.53
2023-03-06T19:07:48.198Z,12.00
2023-03-06T19:10:22.922Z,12.37
2023-03-06T19:12:56.607Z,14.07
2023-03-06T19:15:30.199Z,16.03
2023-03-06T19:18:03.845Z,14.10
2023-03-06T19:20:39.888Z,13.20
2023-03-06T19:23:14.209Z,12.90
2023-03-06T19:25:58.131Z,12.53
2023-03-06T19:28:31.860Z,12.53
2023-03-06T19:31:14.831Z,11.97
2023-03-06T19:33:50.316Z,12.67
2023-03-06T19:36:28.963Z,11.87
2023-03-06T19:39:06.298Z,11.60
2023-03-06T19:41:40.106Z,10.80
2023-03-06T19:44:14.654Z,11.47
2023-03-06T19:46:48.713Z,10.57
2023-03-06T19:49:23.510Z,11.03
2023-03-06T19:51:58.653Z,10.53
2023-03-06T19:54:32.924Z,10.60
2023-03-06T19:57:06.757Z,10.67
2023-03-06T19:59:40.334Z,11.37
2023-03-06T20:02:16.211Z,11.10
2023-03-06T20:04:50.207Z,11.03
2023-03-06T20:07:26.181Z,11.03
2023-03-06T20:10:01.079Z,11.80
2023-03-06T20:12:34.760Z,11.83
2023-03-06T20:15:10.744Z,12.07
2023-03-06T20:17:44.337Z,12.20
2023-03-06T20:20:18.370Z,14.03
2023-03-06T20:22:53.427Z,11.90
2023-03-06T20:25:27.321Z,14.03
2023-03-06T20:28:01.100Z,12.50
2023-03-06T20:30:38.433Z,11.90
2023-03-06T20:33:13.669Z,11.97
2023-03-06T20:35:48.207Z,11.83
2023-03-06T20:38:23.253Z,10.93
2023-03-06T20:40:58.285Z,10.67
2023-03-06T20:43:32.463Z,11.30
2023-03-06T20:46:07.129Z,12.37
2023-03-06T20:48:41.715Z,10.67
2023-03-06T20:51:20.329Z,9.87
2023-03-06T20:53:56.633Z,10.57
2023-03-06T20:56:33.976Z,11.10
2023-03-06T20:59:08.334Z,10.63
2023-03-06T21:01:45.522Z,10.60
2023-03-06T21:04:19.377Z,9.97
2023-03-06T21:06:55.285Z,10.93
2023-03-06T21:09:30.586Z,12.20
2023-03-06T21:12:04.378Z,11.00
2023-03-06T21:14:37.835Z,10.50
2023-03-06T21:17:13.833Z,10.10
2023-03-06T21:19:47.661Z,12.67
2023-03-06T21:22:21.978Z,12.13
2023-03-06T21:24:57.033Z,11.23
2023-03-06T21:27:31.312Z,10.87
2023-03-06T21:30:06.752Z,12.13
2023-03-06T21:32:41.314Z,12.13
2023-03-06T21:35:15.219Z,12.20
2023-03-06T21:37:48.938Z,11.97
2023-03-06T21:40:24.158Z,11.63
2023-03-06T21:42:57.657Z,12.03
2023-03-06T21:45:31.940Z,12.07
2023-03-06T21:48:06.570Z,12.20
2023-03-06T21:50:40.529Z,11.27
2023-03-06T21:53:14.173Z,12.40
2023-03-06T21:55:49.513Z,11.43
2023-03-06T21:58:23.252Z,13.37
2023-03-06T22:00:57.176Z,13.23
2023-03-06T22:03:30.743Z,12.87
2023-03-06T22:06:11.661Z,12.43
2023-03-06T22:08:46.664Z,13.27
2023-03-06T22:11:24.848Z,13.13
2023-03-06T22:13:59.162Z,13.47
2023-03-06T22:16:33.038Z,12.90
2023-03-06T22:19:07.299Z,14.13
2023-03-06T22:21:41.120Z,13.43
2023-03-06T22:24:15.102Z,12.70
2023-03-06T22:26:50.193Z,13.67
2023-03-06T22:29:24.850Z,13.87
2023-03-06T22:31:59.216Z,13.57
2023-03-06T22:34:33.282Z,12.93
2023-03-06T22:37:06.893Z,13.43
2023-03-06T22:39:40.582Z,13.67
2023-03-06T22:42:16.014Z,14.23
2023-03-06T22:44:50.044Z,14.20
2023-03-06T22:47:23.656Z,13.53
2023-03-06T22:49:57.554Z,13.10
2023-03-06T22:52:31.050Z,13.70
2023-03-06T22:55:05.607Z,13.40
2023-03-06T22:57:45.414Z,13.47
2023-03-06T23:00:21.239Z,12.87
2023-03-06T23:02:54.966Z,12.57
2023-03-06T23:05:29.949Z,13.63
2023-03-06T23:08:04.272Z,13.13
2023-03-06T23:10:39.602Z,14.20
2023-03-06T23:13:15.869Z,13.97
2023-03-06T23:15:49.465Z,13.57
2023-03-06T23:18:23.538Z,12.77
2023-03-06T23:20:57.246Z,13.50
2023-03-06T23:23:30.564Z,13.80
2023-03-06T23:26:04.867Z,13.20
2023-03-06T23:28:39.813Z,12.70
2023-03-06T23:31:17.078Z,12.77
2023-03-06T23:33:51.293Z,13.13
2023-03-06T23:36:24.749Z,13.13
2023-03-06T23:38:58.957Z,13.97
2023-03-06T23:41:32.829Z,12.93
2023-03-06T23:44:08.997Z,12.80
2023-03-06T23:46:43.139Z,13.00
2023-03-06T23:49:17.044Z,11.80
2023-03-06T23:51:51.064Z,10.23
2023-03-06T23:54:24.439Z,9.87
2023-03-06T23:56:58.255Z,9.13
2023-03-06T23:59:33.351Z,9.63
